sensor_id;sensor_type;location;lat;lon;timestamp;P1;durP1;ratioP1;P2;durP2;ratioP2
66587;SDS011;53446;50.076;8.198;2022-10-22T00:00:31;14.52;;;7.63;;
66587;SDS011;53446;50.076;8.198;2022-10-22T00:02:32;18.77;;;10.03;;
66587;SDS011;53446;50.076;8.198;2022-10-22T00:04:32;15.60;;;7.30;;
66587;SDS011;53446;50.076;8.198;2022-10-22T00:06:33;16.65;;;7.90;;
66587;SDS011;53446;50.076;8.198;2022-10-22T00:08:34;16.60;;;8.40;;
66587;SDS011;53446;50.076;8.198;2022-10-22T00:10:35;14.17;;;7.13;;
66587;SDS011;53446;50.076;8.198;2022-10-22T00:12:37;17.50;;;7.90;;
66587;SDS011;53446;50.076;8.198;2022-10-22T00:14:37;16.83;;;7.77;;
66587;SDS011;53446;50.076;8.198;2022-10-22T00:16:38;18.50;;;9.23;;
66587;SDS011;53446;50.076;8.198;2022-10-22T00:18:38;16.70;;;8.33;;
66587;SDS011;53446;50.076;8.198;2022-10-22T00:20:39;17.35;;;7.68;;
66587;SDS011;53446;50.076;8.198;2022-10-22T00:22:39;16.00;;;8.40;;
66587;SDS011;53446;50.076;8.198;2022-10-22T00:24:40;19.27;;;8.50;;
66587;SDS011;53446;50.076;8.198;2022-10-22T00:26:40;19.17;;;9.40;;
66587;SDS011;53446;50.076;8.198;2022-10-22T00:28:41;21.00;;;9.97;;
66587;SDS011;53446;50.076;8.198;2022-10-22T00:30:41;17.43;;;8.57;;
66587;SDS011;53446;50.076;8.198;2022-10-22T00:32:41;15.70;;;7.38;;
66587;SDS011;53446;50.076;8.198;2022-10-22T00:34:42;20.95;;;9.45;;
66587;SDS011;53446;50.076;8.198;2022-10-22T00:36:42;20.90;;;9.20;;
66587;SDS011;53446;50.076;8.198;2022-10-22T00:38:43;14.23;;;7.27;;
66587;SDS011;53446;50.076;8.198;2022-10-22T00:40:43;20.80;;;9.03;;
66587;SDS011;53446;50.076;8.198;2022-10-22T00:42:43;24.47;;;7.70;;
66587;SDS011;53446;50.076;8.198;2022-10-22T00:47:09;16.57;;;7.40;;
66587;SDS011;53446;50.076;8.198;2022-10-22T00:49:10;15.77;;;7.72;;
66587;SDS011;53446;50.076;8.198;2022-10-22T00:51:10;23.92;;;10.43;;
66587;SDS011;53446;50.076;8.198;2022-10-22T00:53:14;16.20;;;7.17;;
66587;SDS011;53446;50.076;8.198;2022-10-22T00:55:16;13.98;;;7.68;;
66587;SDS011;53446;50.076;8.198;2022-10-22T00:57:18;14.75;;;7.93;;
66587;SDS011;53446;50.076;8.198;2022-10-22T00:59:19;16.25;;;7.88;;
66587;SDS011;53446;50.076;8.198;2022-10-22T01:01:20;19.43;;;9.17;;
66587;SDS011;53446;50.076;8.198;2022-10-22T01:03:23;24.52;;;9.68;;
66587;SDS011;53446;50.076;8.198;2022-10-22T01:05:27;22.95;;;9.18;;
66587;SDS011;53446;50.076;8.198;2022-10-22T01:07:41;18.35;;;8.48;;
66587;SDS011;53446;50.076;8.198;2022-10-22T01:09:53;18.40;;;7.65;;
66587;SDS011;53446;50.076;8.198;2022-10-22T01:14:44;16.25;;;8.13;;
66587;SDS011;53446;50.076;8.198;2022-10-22T01:17:04;17.92;;;8.00;;
66587;SDS011;53446;50.076;8.198;2022-10-22T01:26:03;16.02;;;8.88;;
66587;SDS011;53446;50.076;8.198;2022-10-22T01:30:42;20.05;;;10.65;;
66587;SDS011;53446;50.076;8.198;2022-10-22T01:32:47;26.23;;;10.90;;
66587;SDS011;53446;50.076;8.198;2022-10-22T01:34:51;20.63;;;9.60;;
66587;SDS011;53446;50.076;8.198;2022-10-22T01:36:53;17.40;;;8.43;;
66587;SDS011;53446;50.076;8.198;2022-10-22T01:38:54;19.83;;;9.00;;
66587;SDS011;53446;50.076;8.198;2022-10-22T01:40:55;20.38;;;9.15;;
66587;SDS011;53446;50.076;8.198;2022-10-22T01:44:58;12.35;;;7.20;;
66587;SDS011;53446;50.076;8.198;2022-10-22T01:49:26;14.35;;;6.82;;
66587;SDS011;53446;50.076;8.198;2022-10-22T01:58:55;25.77;;;8.83;;
66587;SDS011;53446;50.076;8.198;2022-10-22T02:01:04;18.33;;;7.95;;
66587;SDS011;53446;50.076;8.198;2022-10-22T02:03:26;19.52;;;8.55;;
66587;SDS011;53446;50.076;8.198;2022-10-22T02:06:03;18.83;;;8.02;;
66587;SDS011;53446;50.076;8.198;2022-10-22T02:08:02;12.60;;;6.68;;
66587;SDS011;53446;50.076;8.198;2022-10-22T02:10:05;19.93;;;8.40;;
66587;SDS011;53446;50.076;8.198;2022-10-22T02:12:08;11.45;;;7.10;;
66587;SDS011;53446;50.076;8.198;2022-10-22T02:14:09;15.05;;;7.05;;
66587;SDS011;53446;50.076;8.198;2022-10-22T02:16:12;15.13;;;7.82;;
66587;SDS011;53446;50.076;8.198;2022-10-22T02:18:21;15.90;;;7.32;;
66587;SDS011;53446;50.076;8.198;2022-10-22T02:20:26;16.73;;;7.10;;
66587;SDS011;53446;50.076;8.198;2022-10-22T02:22:28;15.32;;;7.30;;
66587;SDS011;53446;50.076;8.198;2022-10-22T02:24:29;15.90;;;7.40;;
66587;SDS011;53446;50.076;8.198;2022-10-22T02:26:31;13.10;;;5.97;;
66587;SDS011;53446;50.076;8.198;2022-10-22T02:28:44;10.68;;;4.70;;
66587;SDS011;53446;50.076;8.198;2022-10-22T02:30:52;9.13;;;4.57;;
66587;SDS011;53446;50.076;8.198;2022-10-22T02:33:17;11.38;;;5.18;;
66587;SDS011;53446;50.076;8.198;2022-10-22T02:35:28;11.35;;;4.22;;
66587;SDS011;53446;50.076;8.198;2022-10-22T02:37:29;10.63;;;4.45;;
66587;SDS011;53446;50.076;8.198;2022-10-22T02:39:30;10.52;;;4.43;;
66587;SDS011;53446;50.076;8.198;2022-10-22T02:41:31;10.07;;;4.35;;
66587;SDS011;53446;50.076;8.198;2022-10-22T02:43:39;10.52;;;4.32;;
66587;SDS011;53446;50.076;8.198;2022-10-22T02:45:43;8.95;;;3.97;;
66587;SDS011;53446;50.076;8.198;2022-10-22T02:47:44;10.23;;;4.87;;
66587;SDS011;53446;50.076;8.198;2022-10-22T02:49:45;9.18;;;3.78;;
66587;SDS011;53446;50.076;8.198;2022-10-22T02:51:45;9.57;;;3.30;;
66587;SDS011;53446;50.076;8.198;2022-10-22T02:53:45;11.03;;;3.33;;
66587;SDS011;53446;50.076;8.198;2022-10-22T02:55:46;9.30;;;3.50;;
66587;SDS011;53446;50.076;8.198;2022-10-22T02:57:46;9.75;;;3.55;;
66587;SDS011;53446;50.076;8.198;2022-10-22T02:59:46;10.30;;;3.75;;
66587;SDS011;53446;50.076;8.198;2022-10-22T03:01:47;6.90;;;3.10;;
66587;SDS011;53446;50.076;8.198;2022-10-22T03:03:47;6.03;;;3.10;;
66587;SDS011;53446;50.076;8.198;2022-10-22T03:05:48;10.67;;;3.63;;
66587;SDS011;53446;50.076;8.198;2022-10-22T03:07:49;8.98;;;3.90;;
66587;SDS011;53446;50.076;8.198;2022-10-22T03:09:50;7.17;;;3.20;;
66587;SDS011;53446;50.076;8.198;2022-10-22T03:11:50;8.83;;;2.93;;
66587;SDS011;53446;50.076;8.198;2022-10-22T03:13:50;8.23;;;3.40;;
66587;SDS011;53446;50.076;8.198;2022-10-22T03:15:51;8.18;;;3.42;;
66587;SDS011;53446;50.076;8.198;2022-10-22T03:17:51;7.05;;;3.25;;
66587;SDS011;53446;50.076;8.198;2022-10-22T03:19:51;7.57;;;3.70;;
66587;SDS011;53446;50.076;8.198;2022-10-22T03:21:52;10.67;;;4.03;;
66587;SDS011;53446;50.076;8.198;2022-10-22T03:23:55;12.75;;;4.63;;
66587;SDS011;53446;50.076;8.198;2022-10-22T03:25:55;9.57;;;3.77;;
66587;SDS011;53446;50.076;8.198;2022-10-22T03:27:56;10.30;;;4.10;;
66587;SDS011;53446;50.076;8.198;2022-10-22T03:30:04;9.48;;;4.65;;
66587;SDS011;53446;50.076;8.198;2022-10-22T03:32:05;8.00;;;3.23;;
66587;SDS011;53446;50.076;8.198;2022-10-22T03:34:05;10.55;;;3.50;;
66587;SDS011;53446;50.076;8.198;2022-10-22T03:36:06;10.20;;;3.07;;
66587;SDS011;53446;50.076;8.198;2022-10-22T03:38:07;8.02;;;3.10;;
66587;SDS011;53446;50.076;8.198;2022-10-22T03:40:07;8.20;;;3.13;;
66587;SDS011;53446;50.076;8.198;2022-10-22T03:42:08;8.95;;;3.10;;
66587;SDS011;53446;50.076;8.198;2022-10-22T03:44:09;5.57;;;2.67;;
66587;SDS011;53446;50.076;8.198;2022-10-22T03:46:09;10.27;;;2.90;;
66587;SDS011;53446;50.076;8.198;2022-10-22T03:48:09;8.93;;;3.37;;
66587;SDS011;53446;50.076;8.198;2022-10-22T03:50:10;7.67;;;3.13;;
66587;SDS011;53446;50.076;8.198;2022-10-22T03:52:11;8.33;;;3.87;;
66587;SDS011;53446;50.076;8.198;2022-10-22T03:54:14;9.65;;;3.58;;
66587;SDS011;53446;50.076;8.198;2022-10-22T03:56:14;8.88;;;3.60;;
66587;SDS011;53446;50.076;8.198;2022-10-22T03:58:15;10.07;;;3.30;;
66587;SDS011;53446;50.076;8.198;2022-10-22T04:00:15;7.93;;;3.63;;
66587;SDS011;53446;50.076;8.198;2022-10-22T04:02:16;10.18;;;4.13;;
66587;SDS011;53446;50.076;8.198;2022-10-22T04:04:16;9.37;;;4.20;;
66587;SDS011;53446;50.076;8.198;2022-10-22T04:06:16;12.47;;;4.20;;
66587;SDS011;53446;50.076;8.198;2022-10-22T04:08:17;8.67;;;3.50;;
66587;SDS011;53446;50.076;8.198;2022-10-22T04:10:17;8.33;;;3.60;;
66587;SDS011;53446;50.076;8.198;2022-10-22T04:12:17;9.70;;;3.63;;
66587;SDS011;53446;50.076;8.198;2022-10-22T04:14:18;9.52;;;3.17;;
66587;SDS011;53446;50.076;8.198;2022-10-22T04:16:19;6.00;;;2.33;;
66587;SDS011;53446;50.076;8.198;2022-10-22T04:18:21;9.50;;;3.20;;
66587;SDS011;53446;50.076;8.198;2022-10-22T04:20:22;9.40;;;2.78;;
66587;SDS011;53446;50.076;8.198;2022-10-22T04:22:22;7.60;;;3.00;;
66587;SDS011;53446;50.076;8.198;2022-10-22T04:24:22;7.30;;;2.60;;
66587;SDS011;53446;50.076;8.198;2022-10-22T04:26:23;8.80;;;3.30;;
66587;SDS011;53446;50.076;8.198;2022-10-22T04:28:23;6.83;;;2.90;;
66587;SDS011;53446;50.076;8.198;2022-10-22T04:30:23;8.17;;;3.27;;
66587;SDS011;53446;50.076;8.198;2022-10-22T04:32:24;9.90;;;3.00;;
66587;SDS011;53446;50.076;8.198;2022-10-22T04:34:26;8.68;;;3.20;;
66587;SDS011;53446;50.076;8.198;2022-10-22T04:36:28;8.00;;;3.10;;
66587;SDS011;53446;50.076;8.198;2022-10-22T04:38:28;8.33;;;3.03;;
66587;SDS011;53446;50.076;8.198;2022-10-22T04:40:28;10.30;;;3.13;;
66587;SDS011;53446;50.076;8.198;2022-10-22T04:42:29;9.27;;;2.77;;
66587;SDS011;53446;50.076;8.198;2022-10-22T04:44:29;7.80;;;2.20;;
66587;SDS011;53446;50.076;8.198;2022-10-22T04:46:30;8.27;;;2.73;;
66587;SDS011;53446;50.076;8.198;2022-10-22T04:48:32;8.95;;;2.92;;
66587;SDS011;53446;50.076;8.198;2022-10-22T04:50:32;8.43;;;2.73;;
66587;SDS011;53446;50.076;8.198;2022-10-22T04:52:32;10.73;;;3.23;;
66587;SDS011;53446;50.076;8.198;2022-10-22T04:54:33;6.17;;;2.60;;
66587;SDS011;53446;50.076;8.198;2022-10-22T04:56:33;7.10;;;2.23;;
66587;SDS011;53446;50.076;8.198;2022-10-22T04:58:33;6.77;;;2.60;;
66587;SDS011;53446;50.076;8.198;2022-10-22T05:00:34;8.07;;;2.60;;
66587;SDS011;53446;50.076;8.198;2022-10-22T05:02:34;8.40;;;2.40;;
66587;SDS011;53446;50.076;8.198;2022-10-22T05:04:34;6.60;;;2.40;;
66587;SDS011;53446;50.076;8.198;2022-10-22T05:06:35;6.90;;;2.40;;
66587;SDS011;53446;50.076;8.198;2022-10-22T05:08:35;7.37;;;2.37;;
66587;SDS011;53446;50.076;8.198;2022-10-22T05:10:36;6.43;;;2.25;;
66587;SDS011;53446;50.076;8.198;2022-10-22T05:12:36;6.18;;;2.45;;
66587;SDS011;53446;50.076;8.198;2022-10-22T05:14:36;5.57;;;2.10;;
66587;SDS011;53446;50.076;8.198;2022-10-22T05:16:37;6.27;;;2.90;;
66587;SDS011;53446;50.076;8.198;2022-10-22T05:18:38;11.03;;;2.43;;
66587;SDS011;53446;50.076;8.198;2022-10-22T05:20:39;7.05;;;2.08;;
66587;SDS011;53446;50.076;8.198;2022-10-22T05:22:40;6.43;;;2.10;;
66587;SDS011;53446;50.076;8.198;2022-10-22T05:24:40;7.23;;;2.07;;
66587;SDS011;53446;50.076;8.198;2022-10-22T05:26:40;8.03;;;2.50;;
66587;SDS011;53446;50.076;8.198;2022-10-22T05:28:41;7.17;;;2.30;;
66587;SDS011;53446;50.076;8.198;2022-10-22T05:30:48;5.55;;;2.25;;
66587;SDS011;53446;50.076;8.198;2022-10-22T05:32:52;8.35;;;2.28;;
66587;SDS011;53446;50.076;8.198;2022-10-22T05:34:52;7.13;;;2.00;;
66587;SDS011;53446;50.076;8.198;2022-10-22T05:36:52;6.80;;;2.37;;
66587;SDS011;53446;50.076;8.198;2022-10-22T05:38:52;6.70;;;2.60;;
66587;SDS011;53446;50.076;8.198;2022-10-22T05:41:04;6.70;;;2.13;;
66587;SDS011;53446;50.076;8.198;2022-10-22T05:43:05;8.52;;;2.70;;
66587;SDS011;53446;50.076;8.198;2022-10-22T05:45:05;7.10;;;2.00;;
66587;SDS011;53446;50.076;8.198;2022-10-22T05:47:07;7.03;;;2.33;;
66587;SDS011;53446;50.076;8.198;2022-10-22T05:49:10;6.68;;;2.03;;
66587;SDS011;53446;50.076;8.198;2022-10-22T05:51:12;3.90;;;1.73;;
66587;SDS011;53446;50.076;8.198;2022-10-22T05:53:12;5.70;;;1.75;;
66587;SDS011;53446;50.076;8.198;2022-10-22T05:55:13;7.33;;;1.73;;
66587;SDS011;53446;50.076;8.198;2022-10-22T05:57:13;8.37;;;2.40;;
66587;SDS011;53446;50.076;8.198;2022-10-22T05:59:13;7.17;;;2.57;;
66587;SDS011;53446;50.076;8.198;2022-10-22T06:01:15;5.15;;;2.15;;
66587;SDS011;53446;50.076;8.198;2022-10-22T06:03:19;6.78;;;1.98;;
66587;SDS011;53446;50.076;8.198;2022-10-22T06:05:20;5.60;;;1.90;;
66587;SDS011;53446;50.076;8.198;2022-10-22T06:07:20;5.70;;;1.80;;
66587;SDS011;53446;50.076;8.198;2022-10-22T06:09:22;5.45;;;1.73;;
66587;SDS011;53446;50.076;8.198;2022-10-22T06:11:24;4.00;;;1.73;;
66587;SDS011;53446;50.076;8.198;2022-10-22T06:13:24;4.83;;;1.60;;
66587;SDS011;53446;50.076;8.198;2022-10-22T06:15:25;5.93;;;1.73;;
66587;SDS011;53446;50.076;8.198;2022-10-22T06:17:25;5.90;;;1.60;;
66587;SDS011;53446;50.076;8.198;2022-10-22T06:19:25;7.87;;;1.90;;
66587;SDS011;53446;50.076;8.198;2022-10-22T06:21:26;9.90;;;1.90;;
66587;SDS011;53446;50.076;8.198;2022-10-22T06:23:26;7.38;;;1.75;;
66587;SDS011;53446;50.076;8.198;2022-10-22T06:25:27;6.72;;;1.90;;
66587;SDS011;53446;50.076;8.198;2022-10-22T06:27:28;5.93;;;1.90;;
66587;SDS011;53446;50.076;8.198;2022-10-22T06:29:28;4.30;;;1.75;;
66587;SDS011;53446;50.076;8.198;2022-10-22T06:31:28;6.67;;;1.87;;
66587;SDS011;53446;50.076;8.198;2022-10-22T06:33:32;7.05;;;2.00;;
66587;SDS011;53446;50.076;8.198;2022-10-22T06:35:33;5.93;;;1.60;;
66587;SDS011;53446;50.076;8.198;2022-10-22T06:37:34;7.07;;;1.80;;
66587;SDS011;53446;50.076;8.198;2022-10-22T06:39:34;5.47;;;1.80;;
66587;SDS011;53446;50.076;8.198;2022-10-22T06:41:35;7.68;;;2.17;;
66587;SDS011;53446;50.076;8.198;2022-10-22T06:43:35;6.30;;;1.90;;
66587;SDS011;53446;50.076;8.198;2022-10-22T06:45:35;7.40;;;1.90;;
66587;SDS011;53446;50.076;8.198;2022-10-22T06:47:36;7.65;;;1.60;;
66587;SDS011;53446;50.076;8.198;2022-10-22T06:49:36;7.63;;;2.05;;
66587;SDS011;53446;50.076;8.198;2022-10-22T06:51:37;4.23;;;1.83;;
66587;SDS011;53446;50.076;8.198;2022-10-22T06:53:38;4.70;;;1.93;;
66587;SDS011;53446;50.076;8.198;2022-10-22T06:55:39;5.13;;;1.85;;
66587;SDS011;53446;50.076;8.198;2022-10-22T06:57:39;5.93;;;1.90;;
66587;SDS011;53446;50.076;8.198;2022-10-22T06:59:40;5.90;;;2.30;;
66587;SDS011;53446;50.076;8.198;2022-10-22T07:01:40;6.80;;;2.20;;
66587;SDS011;53446;50.076;8.198;2022-10-22T07:03:41;6.93;;;1.95;;
66587;SDS011;53446;50.076;8.198;2022-10-22T07:05:41;10.53;;;2.70;;
66587;SDS011;53446;50.076;8.198;2022-10-22T07:07:41;6.93;;;2.20;;
66587;SDS011;53446;50.076;8.198;2022-10-22T07:09:42;6.77;;;2.47;;
66587;SDS011;53446;50.076;8.198;2022-10-22T07:11:44;5.47;;;2.10;;
66587;SDS011;53446;50.076;8.198;2022-10-22T07:13:45;9.43;;;2.30;;
66587;SDS011;53446;50.076;8.198;2022-10-22T07:15:50;7.18;;;1.90;;
66587;SDS011;53446;50.076;8.198;2022-10-22T07:17:52;7.70;;;2.00;;
66587;SDS011;53446;50.076;8.198;2022-10-22T07:19:52;6.03;;;2.10;;
66587;SDS011;53446;50.076;8.198;2022-10-22T07:21:53;9.80;;;3.00;;
66587;SDS011;53446;50.076;8.198;2022-10-22T07:23:53;27.30;;;7.60;;
66587;SDS011;53446;50.076;8.198;2022-10-22T07:25:53;10.98;;;3.60;;
66587;SDS011;53446;50.076;8.198;2022-10-22T07:27:54;9.13;;;2.50;;
66587;SDS011;53446;50.076;8.198;2022-10-22T07:29:54;8.07;;;2.50;;
66587;SDS011;53446;50.076;8.198;2022-10-22T07:31:55;6.80;;;2.43;;
66587;SDS011;53446;50.076;8.198;2022-10-22T07:33:55;5.33;;;2.10;;
66587;SDS011;53446;50.076;8.198;2022-10-22T07:36:03;6.68;;;2.15;;
66587;SDS011;53446;50.076;8.198;2022-10-22T07:38:05;5.93;;;2.25;;
66587;SDS011;53446;50.076;8.198;2022-10-22T07:40:06;5.30;;;1.85;;
66587;SDS011;53446;50.076;8.198;2022-10-22T07:42:07;6.90;;;2.30;;
66587;SDS011;53446;50.076;8.198;2022-10-22T07:44:08;6.82;;;2.00;;
66587;SDS011;53446;50.076;8.198;2022-10-22T07:46:08;6.43;;;2.00;;
66587;SDS011;53446;50.076;8.198;2022-10-22T07:48:08;9.70;;;2.30;;
66587;SDS011;53446;50.076;8.198;2022-10-22T07:50:09;8.00;;;2.30;;
66587;SDS011;53446;50.076;8.198;2022-10-22T07:52:09;7.10;;;2.30;;
66587;SDS011;53446;50.076;8.198;2022-10-22T07:54:09;7.32;;;2.00;;
66587;SDS011;53446;50.076;8.198;2022-10-22T07:56:10;5.28;;;2.10;;
66587;SDS011;53446;50.076;8.198;2022-10-22T07:58:10;5.40;;;1.70;;
66587;SDS011;53446;50.076;8.198;2022-10-22T08:00:10;4.87;;;2.07;;
66587;SDS011;53446;50.076;8.198;2022-10-22T08:02:11;6.40;;;1.90;;
66587;SDS011;53446;50.076;8.198;2022-10-22T08:04:11;5.82;;;1.95;;
66587;SDS011;53446;50.076;8.198;2022-10-22T08:06:12;7.95;;;1.95;;
66587;SDS011;53446;50.076;8.198;2022-10-22T08:08:14;9.07;;;1.88;;
66587;SDS011;53446;50.076;8.198;2022-10-22T08:10:15;5.17;;;1.60;;
66587;SDS011;53446;50.076;8.198;2022-10-22T08:12:15;5.95;;;1.90;;
66587;SDS011;53446;50.076;8.198;2022-10-22T08:14:15;7.43;;;1.88;;
66587;SDS011;53446;50.076;8.198;2022-10-22T08:16:16;4.47;;;1.40;;
66587;SDS011;53446;50.076;8.198;2022-10-22T08:18:16;6.17;;;1.57;;
66587;SDS011;53446;50.076;8.198;2022-10-22T08:20:16;5.20;;;1.80;;
66587;SDS011;53446;50.076;8.198;2022-10-22T08:22:17;12.27;;;1.90;;
66587;SDS011;53446;50.076;8.198;2022-10-22T08:24:18;6.03;;;1.65;;
66587;SDS011;53446;50.076;8.198;2022-10-22T08:26:18;5.47;;;1.60;;
66587;SDS011;53446;50.076;8.198;2022-10-22T08:28:18;5.73;;;1.63;;
66587;SDS011;53446;50.076;8.198;2022-10-22T08:30:19;7.40;;;1.60;;
66587;SDS011;53446;50.076;8.198;2022-10-22T08:32:19;6.55;;;1.40;;
66587;SDS011;53446;50.076;8.198;2022-10-22T08:34:19;5.45;;;1.33;;
66587;SDS011;53446;50.076;8.198;2022-10-22T08:36:20;4.80;;;1.50;;
66587;SDS011;53446;50.076;8.198;2022-10-22T08:38:20;7.20;;;1.67;;
66587;SDS011;53446;50.076;8.198;2022-10-22T08:40:23;5.67;;;1.80;;
66587;SDS011;53446;50.076;8.198;2022-10-22T08:44:46;11.20;;;1.70;;
66587;SDS011;53446;50.076;8.198;2022-10-22T08:49:27;5.45;;;1.83;;
66587;SDS011;53446;50.076;8.198;2022-10-22T08:51:30;5.55;;;1.50;;
66587;SDS011;53446;50.076;8.198;2022-10-22T08:53:46;3.72;;;1.10;;
66587;SDS011;53446;50.076;8.198;2022-10-22T08:59:12;4.10;;;1.30;;
66587;SDS011;53446;50.076;8.198;2022-10-22T09:01:20;6.45;;;1.60;;
66587;SDS011;53446;50.076;8.198;2022-10-22T09:05:32;6.32;;;1.50;;
66587;SDS011;53446;50.076;8.198;2022-10-22T09:07:39;4.75;;;1.25;;
66587;SDS011;53446;50.076;8.198;2022-10-22T09:09:42;4.05;;;1.23;;
66587;SDS011;53446;50.076;8.198;2022-10-22T09:11:48;4.45;;;1.20;;
66587;SDS011;53446;50.076;8.198;2022-10-22T09:13:50;5.85;;;1.45;;
66587;SDS011;53446;50.076;8.198;2022-10-22T09:15:58;6.00;;;1.40;;
66587;SDS011;53446;50.076;8.198;2022-10-22T09:22:31;4.65;;;1.40;;
66587;SDS011;53446;50.076;8.198;2022-10-22T09:25:08;5.35;;;1.60;;
66587;SDS011;53446;50.076;8.198;2022-10-22T09:29:18;8.10;;;1.35;;
66587;SDS011;53446;50.076;8.198;2022-10-22T09:31:21;8.70;;;1.50;;
66587;SDS011;53446;50.076;8.198;2022-10-22T09:33:25;8.32;;;1.40;;
66587;SDS011;53446;50.076;8.198;2022-10-22T09:35:27;4.70;;;1.20;;
66587;SDS011;53446;50.076;8.198;2022-10-22T09:37:28;4.32;;;1.30;;
66587;SDS011;53446;50.076;8.198;2022-10-22T09:39:33;5.65;;;1.40;;
66587;SDS011;53446;50.076;8.198;2022-10-22T09:41:34;7.60;;;1.38;;
66587;SDS011;53446;50.076;8.198;2022-10-22T09:43:35;6.10;;;1.30;;
66587;SDS011;53446;50.076;8.198;2022-10-22T09:45:36;7.80;;;1.50;;
66587;SDS011;53446;50.076;8.198;2022-10-22T09:47:37;7.87;;;1.40;;
66587;SDS011;53446;50.076;8.198;2022-10-22T09:49:38;5.28;;;1.20;;
66587;SDS011;53446;50.076;8.198;2022-10-22T09:53:54;6.80;;;1.30;;
66587;SDS011;53446;50.076;8.198;2022-10-22T09:55:57;5.60;;;1.20;;
66587;SDS011;53446;50.076;8.198;2022-10-22T09:57:59;5.13;;;1.48;;
66587;SDS011;53446;50.076;8.198;2022-10-22T09:59:59;4.87;;;1.60;;
66587;SDS011;53446;50.076;8.198;2022-10-22T10:02:01;4.78;;;1.30;;
66587;SDS011;53446;50.076;8.198;2022-10-22T10:04:14;6.75;;;1.70;;
66587;SDS011;53446;50.076;8.198;2022-10-22T10:06:19;6.25;;;1.23;;
66587;SDS011;53446;50.076;8.198;2022-10-22T10:08:20;6.55;;;1.20;;
66587;SDS011;53446;50.076;8.198;2022-10-22T10:10:31;4.78;;;1.25;;
66587;SDS011;53446;50.076;8.198;2022-10-22T10:12:45;4.40;;;1.35;;
66587;SDS011;53446;50.076;8.198;2022-10-22T10:16:56;4.30;;;1.10;;
66587;SDS011;53446;50.076;8.198;2022-10-22T10:21:36;3.75;;;1.00;;
66587;SDS011;53446;50.076;8.198;2022-10-22T10:25:57;4.25;;;1.20;;
66587;SDS011;53446;50.076;8.198;2022-10-22T10:28:20;6.60;;;1.55;;
66587;SDS011;53446;50.076;8.198;2022-10-22T10:30:28;7.28;;;1.50;;
66587;SDS011;53446;50.076;8.198;2022-10-22T10:32:42;5.88;;;1.90;;
66587;SDS011;53446;50.076;8.198;2022-10-22T10:35:02;6.45;;;1.60;;
66587;SDS011;53446;50.076;8.198;2022-10-22T10:37:23;4.63;;;1.40;;
66587;SDS011;53446;50.076;8.198;2022-10-22T10:46:16;3.97;;;1.20;;
66587;SDS011;53446;50.076;8.198;2022-10-22T10:50:29;6.63;;;1.08;;
66587;SDS011;53446;50.076;8.198;2022-10-22T10:52:36;6.53;;;1.23;;
66587;SDS011;53446;50.076;8.198;2022-10-22T10:56:52;5.75;;;1.10;;
66587;SDS011;53446;50.076;8.198;2022-10-22T10:59:09;6.53;;;1.20;;
66587;SDS011;53446;50.076;8.198;2022-10-22T11:01:30;5.55;;;1.48;;
66587;SDS011;53446;50.076;8.198;2022-10-22T11:06:00;6.60;;;1.50;;
66587;SDS011;53446;50.076;8.198;2022-10-22T11:08:08;6.68;;;1.30;;
66587;SDS011;53446;50.076;8.198;2022-10-22T11:10:35;5.00;;;1.38;;
66587;SDS011;53446;50.076;8.198;2022-10-22T11:12:40;7.35;;;1.38;;
66587;SDS011;53446;50.076;8.198;2022-10-22T11:17:14;7.30;;;1.63;;
66587;SDS011;53446;50.076;8.198;2022-10-22T11:21:54;4.85;;;1.38;;
66587;SDS011;53446;50.076;8.198;2022-10-22T11:24:08;4.88;;;1.30;;
66587;SDS011;53446;50.076;8.198;2022-10-22T11:26:23;4.82;;;1.20;;
66587;SDS011;53446;50.076;8.198;2022-10-22T11:28:31;6.35;;;1.20;;
66587;SDS011;53446;50.076;8.198;2022-10-22T11:30:33;5.43;;;1.40;;
66587;SDS011;53446;50.076;8.198;2022-10-22T11:32:35;4.25;;;1.40;;
66587;SDS011;53446;50.076;8.198;2022-10-22T11:34:49;6.55;;;1.50;;
66587;SDS011;53446;50.076;8.198;2022-10-22T11:36:53;4.22;;;1.10;;
66587;SDS011;53446;50.076;8.198;2022-10-22T11:38:53;5.25;;;1.38;;
66587;SDS011;53446;50.076;8.198;2022-10-22T11:41:14;6.43;;;1.20;;
66587;SDS011;53446;50.076;8.198;2022-10-22T11:45:41;5.68;;;1.52;;
66587;SDS011;53446;50.076;8.198;2022-10-22T11:47:52;4.80;;;1.48;;
66587;SDS011;53446;50.076;8.198;2022-10-22T11:54:28;5.15;;;1.42;;
66587;SDS011;53446;50.076;8.198;2022-10-22T11:56:41;8.00;;;1.60;;
66587;SDS011;53446;50.076;8.198;2022-10-22T11:58:42;5.00;;;1.40;;
66587;SDS011;53446;50.076;8.198;2022-10-22T12:00:47;5.32;;;1.40;;
66587;SDS011;53446;50.076;8.198;2022-10-22T12:02:48;5.63;;;1.50;;
66587;SDS011;53446;50.076;8.198;2022-10-22T12:07:33;7.22;;;1.85;;
66587;SDS011;53446;50.076;8.198;2022-10-22T12:09:39;4.40;;;1.50;;
66587;SDS011;53446;50.076;8.198;2022-10-22T12:11:40;5.30;;;1.80;;
66587;SDS011;53446;50.076;8.198;2022-10-22T12:14:06;7.97;;;1.73;;
66587;SDS011;53446;50.076;8.198;2022-10-22T12:16:19;6.47;;;1.52;;
66587;SDS011;53446;50.076;8.198;2022-10-22T12:18:26;4.70;;;1.50;;
66587;SDS011;53446;50.076;8.198;2022-10-22T12:20:30;5.65;;;1.30;;
66587;SDS011;53446;50.076;8.198;2022-10-22T12:22:31;5.53;;;1.40;;
66587;SDS011;53446;50.076;8.198;2022-10-22T12:24:37;6.57;;;1.50;;
66587;SDS011;53446;50.076;8.198;2022-10-22T12:26:39;4.95;;;1.60;;
66587;SDS011;53446;50.076;8.198;2022-10-22T12:28:40;5.33;;;1.43;;
66587;SDS011;53446;50.076;8.198;2022-10-22T12:30:40;7.70;;;1.70;;
66587;SDS011;53446;50.076;8.198;2022-10-22T12:32:41;5.80;;;1.65;;
66587;SDS011;53446;50.076;8.198;2022-10-22T12:34:45;5.07;;;1.30;;
66587;SDS011;53446;50.076;8.198;2022-10-22T12:36:47;5.43;;;1.40;;
66587;SDS011;53446;50.076;8.198;2022-10-22T12:38:48;5.82;;;1.40;;
66587;SDS011;53446;50.076;8.198;2022-10-22T12:40:49;7.60;;;1.65;;
66587;SDS011;53446;50.076;8.198;2022-10-22T12:42:51;6.47;;;2.30;;
66587;SDS011;53446;50.076;8.198;2022-10-22T12:44:55;6.07;;;1.50;;
66587;SDS011;53446;50.076;8.198;2022-10-22T12:46:56;5.80;;;1.52;;
66587;SDS011;53446;50.076;8.198;2022-10-22T12:48:59;7.47;;;1.73;;
66587;SDS011;53446;50.076;8.198;2022-10-22T12:51:02;4.82;;;1.60;;
66587;SDS011;53446;50.076;8.198;2022-10-22T12:53:11;5.47;;;1.35;;
66587;SDS011;53446;50.076;8.198;2022-10-22T12:55:17;8.88;;;1.48;;
66587;SDS011;53446;50.076;8.198;2022-10-22T12:57:19;5.43;;;1.50;;
66587;SDS011;53446;50.076;8.198;2022-10-22T13:01:20;9.27;;;1.70;;
66587;SDS011;53446;50.076;8.198;2022-10-22T13:03:40;6.27;;;1.60;;
66587;SDS011;53446;50.076;8.198;2022-10-22T13:05:46;8.45;;;1.67;;
66587;SDS011;53446;50.076;8.198;2022-10-22T13:08:00;7.70;;;1.80;;
66587;SDS011;53446;50.076;8.198;2022-10-22T13:10:18;5.57;;;1.42;;
66587;SDS011;53446;50.076;8.198;2022-10-22T13:12:24;7.80;;;1.50;;
66587;SDS011;53446;50.076;8.198;2022-10-22T13:14:27;9.77;;;1.45;;
66587;SDS011;53446;50.076;8.198;2022-10-22T13:16:30;7.57;;;2.08;;
66587;SDS011;53446;50.076;8.198;2022-10-22T13:18:32;6.88;;;1.67;;
66587;SDS011;53446;50.076;8.198;2022-10-22T13:20:32;5.90;;;1.40;;
66587;SDS011;53446;50.076;8.198;2022-10-22T13:22:37;5.30;;;1.38;;
66587;SDS011;53446;50.076;8.198;2022-10-22T13:24:47;5.97;;;1.58;;
66587;SDS011;53446;50.076;8.198;2022-10-22T13:26:48;8.63;;;1.80;;
66587;SDS011;53446;50.076;8.198;2022-10-22T13:28:54;6.32;;;1.70;;
66587;SDS011;53446;50.076;8.198;2022-10-22T13:30:56;6.40;;;1.90;;
66587;SDS011;53446;50.076;8.198;2022-10-22T13:35:05;6.97;;;1.70;;
66587;SDS011;53446;50.076;8.198;2022-10-22T13:37:07;9.17;;;2.00;;
66587;SDS011;53446;50.076;8.198;2022-10-22T13:39:20;9.13;;;1.90;;
66587;SDS011;53446;50.076;8.198;2022-10-22T13:41:23;10.13;;;1.90;;
66587;SDS011;53446;50.076;8.198;2022-10-22T13:43:25;8.93;;;1.70;;